Flight Track Log - Related Links

Times and Time Zones

All times are in EDT time to prevent confusion due to time zone crossing. See the IBE3255 flight status page for this flight to view local times or setup timezone preferences in your user account.

Time Position Orientation Groundspeed Altitude Reporting Facility
EDT Latitude Longitude Course Direction KTS MPH feet Rate Location/Type
Wed 01:45:00 PM 44.6851 6.0284 245° Southwest  Level Estimated
Wed 01:46:00 PM 44.6406 5.9078 243° Southwest  Level Estimated
Wed 01:47:00 PM 44.5960 5.7874 243° Southwest  Level Estimated
Wed 01:48:00 PM 44.5513 5.6672 242° Southwest  Level Estimated
Wed 01:49:00 PM 44.5065 5.5472 242° Southwest  Level Estimated
Wed 01:50:00 PM 44.4615 5.4274 242° Southwest  Level Estimated
Wed 01:51:00 PM 44.4164 5.3077 242° Southwest  Level Estimated
Wed 01:52:00 PM 44.3711 5.1882 242° Southwest  Level Estimated
Wed 01:53:00 PM 44.3258 5.0690 242° Southwest  Level Estimated
Wed 01:54:00 PM 44.2803 4.9498 242° Southwest  Level Estimated
Wed 01:55:00 PM 44.2347 4.8309 242° Southwest  Level Estimated
Wed 01:56:00 PM 44.1890 4.7122 242° Southwest  Level Estimated
Wed 01:57:00 PM 44.1432 4.5936 242° Southwest  Level Estimated
Wed 01:58:00 PM 44.0972 4.4753 242° Southwest  Level Estimated
Wed 01:59:00 PM 44.0511 4.3571 242° Southwest  Level Estimated
Wed 02:00:00 PM 44.0049 4.2391 241° Southwest  Level Estimated
Wed 02:01:00 PM 43.9586 4.1213 241° Southwest  Level Estimated
Wed 02:02:00 PM 43.9121 4.0036 241° Southwest  Level Estimated
Wed 02:03:00 PM 43.8655 3.8862 241° Southwest  Level Estimated
Wed 02:04:00 PM 43.8189 3.7689 241° Southwest  Level Estimated
Wed 02:05:00 PM 43.7720 3.6518 241° Southwest  Level Estimated
Wed 02:06:00 PM 43.7251 3.5349 241° Southwest  Level Estimated
Wed 02:07:00 PM 43.6781 3.4182 241° Southwest  Level Estimated
Wed 02:08:00 PM 43.6309 3.3017 241° Southwest  Level Estimated
Wed 02:09:00 PM 43.5836 3.1853 241° Southwest  Level Estimated
Wed 02:10:00 PM 43.5362 3.0692 241° Southwest  Level Estimated
Wed 02:11:00 PM 43.4887 2.9532 241° Southwest  Level Estimated
Wed 02:12:00 PM 43.4410 2.8374 240° Southwest  Level Estimated
Wed 02:13:00 PM 43.3933 2.7218 240° Southwest  Level Estimated
Wed 02:14:00 PM 43.3454 2.6063 240° Southwest  Level Estimated
Wed 02:15:00 PM 43.2974 2.4911 240° Southwest  Level Estimated
Wed 02:16:00 PM 43.2493 2.3760 240° Southwest  Level Estimated
Wed 02:17:00 PM 43.2011 2.2611 240° Southwest  Level Estimated
Wed 02:18:00 PM 43.1528 2.1464 240° Southwest  Level Estimated
Wed 02:19:00 PM 43.1043 2.0319 240° Southwest  Level Estimated
Wed 02:20:00 PM 43.0558 1.9175 240° Southwest  Level Estimated
Wed 02:21:00 PM 43.0071 1.8034 240° Southwest  Level Estimated
Wed 02:22:00 PM 42.9583 1.6894 240° Southwest  Level Estimated
Wed 02:23:00 PM 42.9094 1.5756 240° Southwest  Level Estimated
Wed 02:24:00 PM 42.8604 1.4620 240° Southwest  Level Estimated
Wed 02:25:00 PM 42.8112 1.3485 239° Southwest  Level Estimated
Wed 02:26:00 PM 42.7620 1.2353 239° Southwest  Level Estimated
Wed 02:27:00 PM 42.7127 1.1222 239° Southwest  Level Estimated
Wed 02:28:00 PM 42.6632 1.0093 239° Southwest  Level Estimated
Wed 02:29:00 PM 42.6136 0.8966 239° Southwest  Level Estimated
Wed 02:30:00 PM 42.5639 0.7840 239° Southwest  Level Estimated
Wed 02:31:00 PM 42.5142 0.6717 239° Southwest  Level Estimated
Wed 02:32:00 PM 42.4643 0.5595 239° Southwest  Level Estimated
Wed 02:33:00 PM 42.4142 0.4475 239° Southwest  Level Estimated
Wed 02:34:00 PM 42.3641 0.3357 239° Southwest  Level Estimated
Wed 02:35:00 PM 42.3139 0.2240 239° Southwest  Level Estimated
Wed 02:36:00 PM 42.2636 0.1126 239° Southwest  Level Estimated
Wed 02:37:00 PM 42.2131 0.0013 239° Southwest  Level Estimated
Wed 02:38:00 PM 42.1626 -0.1098 238° Southwest  Level Estimated
Wed 02:39:00 PM 42.1119 -0.2208 238° Southwest  Level Estimated
Wed 02:40:00 PM 42.0611 -0.3315 238° Southwest  Level Estimated
Wed 02:41:00 PM 42.0103 -0.4421 238° Southwest  Level Estimated
Wed 02:42:00 PM 41.9593 -0.5525 238° Southwest  Level Estimated
Wed 02:43:00 PM 41.9082 -0.6628 238° Southwest  Level Estimated
Wed 02:44:00 PM 41.8570 -0.7728 238° Southwest  Level Estimated
Wed 02:45:00 PM 41.8057 -0.8827 238° Southwest  Level Estimated
Wed 02:46:00 PM 41.7543 -0.9924 238° Southwest  Level Estimated
Wed 02:47:00 PM 41.7028 -1.1019 238° Southwest  Level Estimated
Wed 02:48:00 PM 41.6512 -1.2112 238° Southwest  Level Estimated
Wed 02:49:00 PM 41.5995 -1.3204 238° Southwest  Level Estimated
Wed 02:50:00 PM 41.5477 -1.4294 238° Southwest  Level Estimated
Wed 02:51:00 PM 41.4958 -1.5382 238° Southwest  Level Estimated
Wed 02:52:00 PM 41.4438 -1.6469 237° Southwest  Level Estimated
Wed 02:53:00 PM 41.3917 -1.7553 237° Southwest  Level Estimated
Wed 02:54:00 PM 41.3394 -1.8636 237° Southwest  Level Estimated
Wed 02:55:00 PM 41.2871 -1.9718 237° Southwest  Level Estimated
Wed 02:56:00 PM 41.2347 -2.0797 237° Southwest  Level Estimated
Wed 02:57:00 PM 41.1822 -2.1875 237° Southwest  Level Estimated
Wed 02:58:00 PM 41.1296 -2.2951 237° Southwest  Level Estimated
Wed 02:59:00 PM 41.0768 -2.4025 237° Southwest  Level Estimated
Wed 03:00:00 PM 41.0240 -2.5098 237° Southwest  Level Estimated
Wed 03:01:00 PM 40.9711 -2.6169 237° Southwest  Level Estimated
Wed 03:02:00 PM 40.9181 -2.7238 237° Southwest  Level Estimated
Wed 03:03:00 PM 40.8650 -2.8306 237° Southwest  Level Estimated
Wed 03:04:00 PM 40.8117 -2.9371 237° Southwest  Level Estimated
Wed 03:05:00 PM 40.7584 -3.0435 237° Southwest  Level Estimated
Wed 03:06:00 PM 40.7050 -3.1498 236° Southwest  Level Estimated
Wed 03:07:00 PM 40.6515 -3.2558 236° Southwest  Level Estimated
Wed 03:08:00 PM 40.5979 -3.3617 236° Southwest  Level Estimated
Wed 03:09:00 PM 40.5442 -3.4674 236° Southwest  Level Estimated
Wed 03:10:00 PM 40.4936 -3.5668 236° Southwest  Level Estimated
Wed 03:11:00 PM 40.4936 -3.5668 217° Southwest  Level Estimated
Wed 03:12:00 PM 40.4936 -3.5668 217° Southwest  Level Estimated
Wed 03:13:00 PM 40.4936 -3.5668 217° Southwest  Level Estimated
Wed 03:14:00 PM 40.4936 -3.5668 217° Southwest  Level Estimated
Wed 03:15:00 PM 40.4936 -3.5668 217° Southwest  Level Estimated
Wed 03:16:00 PM 40.4936 -3.5668 217° Southwest  Level Estimated
Wed 03:17:00 PM 40.4936 -3.5668 217° Southwest  Level Estimated
Wed 03:18:00 PM 40.4936 -3.5668 217° Southwest  Level Estimated
Wed 03:19:00 PM 40.4936 -3.5668 217° Southwest  Level Estimated
Wed 03:20:00 PM 40.4936 -3.5668 217° Southwest  Level Estimated
Wed 03:21:00 PM 40.4936 -3.5668 217° Southwest  Level Estimated
Wed 03:22:00 PM 40.4936 -3.5668 217° Southwest  Level Estimated
Wed 03:23:00 PM 40.4936 -3.5668 217° Southwest  Level Estimated
Wed 03:24:00 PM 40.4936 -3.5668 217° Southwest  Level Estimated
Wed 03:25:00 PM 40.4936 -3.5668 217° Southwest  Level Estimated

Login

Don't have an account? Register now (free) for customized features, flight alerts, and more!